»·PEaware :: N86517 KPHX-KLAX

N86517 :: KPHX-KLAX

FLIGHT INFORMATION

Flight Status: Arrived
Operator: Privately registered:
United States
More flights under this callsign
Pilot: William B. (10095)
Aircraft: LOCKHEED L-049/749/1049 CONSTELLATION
(CONI)
More flights by this aircraft type
Origin: KPHX Phoenix Sky Harbor Intl
United States
Destination: KLAX Los Angeles Intl
United States
More flights between these airports :: More routes between these airports
Route: +BXK V16 BLH V64 TRM V137 PSP PDZ LAX
File this flight plan on PilotEdge
Remarks: P3d V3.A2A Connie
Altitude:
(Current/Filed)
260ft
Speed:
(Current/Filed)
150kts
Departed: 24-Jan-17 07:28 PM
Arrived: 24-Jan-17 09:03 PM
Distance/Time
Traveled:
321nm/1:35
Distance/Time
To Go:
Arrived

Flight Plot

Page will automatically refresh every two minutes.


Map Options




Map Legend


Flown Route
Filed Route
Departure Airport
Arrival Airport
Navaid (VOR, NDB)
Fix

Horizontal Profiles

Position Reports

Time Latitude Longitude Heading Altitude Ground
Speed
24-Jan-17 18:44 33.442300 -111.997904 238 1144ft 0kts
24-Jan-17 18:45 33.442300 -111.997904 238 1144ft 0kts
24-Jan-17 18:46 33.442300 -111.997904 238 1144ft 0kts
24-Jan-17 18:47 33.442300 -111.997904 238 1144ft 0kts
24-Jan-17 18:48 33.442300 -111.997904 238 1144ft 0kts
24-Jan-17 18:49 33.442300 -111.997904 238 1144ft 0kts
24-Jan-17 18:50 33.442300 -111.997904 238 1144ft 0kts
24-Jan-17 18:51 33.442300 -111.997904 238 1144ft 0kts
24-Jan-17 18:52 33.442300 -111.997904 238 1144ft 0kts
24-Jan-17 18:53 33.442300 -111.997904 238 1144ft 0kts
24-Jan-17 18:54 33.442300 -111.997904 238 1144ft 0kts
24-Jan-17 18:55 33.442300 -111.997904 238 1144ft 0kts
24-Jan-17 18:56 33.442300 -111.997904 238 1144ft 0kts
24-Jan-17 18:57 33.442300 -111.997904 238 1144ft 0kts
24-Jan-17 18:58 33.442300 -111.997904 238 1144ft 0kts
24-Jan-17 18:59 33.442300 -111.997904 238 1144ft 0kts
24-Jan-17 19:03 33.442300 -111.997904 238 1144ft 0kts
24-Jan-17 19:04 33.442300 -111.997904 238 1144ft 0kts
24-Jan-17 19:05 33.442300 -111.997904 238 1144ft 0kts
24-Jan-17 19:06 33.442300 -111.997904 238 1144ft 0kts
24-Jan-17 19:07 33.442300 -111.997904 238 1144ft 0kts
24-Jan-17 19:08 33.442300 -111.997904 238 1144ft 0kts
24-Jan-17 19:13 33.442300 -111.997904 238 1144ft 0kts
24-Jan-17 19:14 33.442300 -111.997904 238 1144ft 0kts
24-Jan-17 19:15 33.442300 -111.997904 238 1144ft 0kts
24-Jan-17 19:16 33.442300 -111.997904 238 1144ft 0kts
24-Jan-17 19:17 33.442300 -111.997904 238 1144ft 0kts
24-Jan-17 19:18 33.442300 -111.997904 238 1144ft 0kts
24-Jan-17 19:19 33.442300 -111.997904 238 1144ft 0kts
24-Jan-17 19:20 33.442300 -111.997904 238 1144ft 0kts
24-Jan-17 19:21 33.442300 -111.997904 238 1144ft 0kts
24-Jan-17 19:22 33.442300 -111.997905 238 1144ft 0kts
24-Jan-17 19:23 33.442299 -111.997906 238 1144ft 0kts
24-Jan-17 19:24 33.442298 -111.997908 238 1144ft 0kts
24-Jan-17 19:25 33.441932 -111.994369 88 1144ft 21kts
24-Jan-17 19:26 33.441937 -111.991452 88 1144ft 0kts
24-Jan-17 19:27 33.440708 -111.991058 201 1144ft 10kts
24-Jan-17 19:28 33.440916 -112.005461 272 1278ft 112kts
24-Jan-17 19:29 33.455325 -112.044471 306 2681ft 152kts
24-Jan-17 19:30 33.480758 -112.082381 297 4478ft 146kts
24-Jan-17 19:31 33.507481 -112.116302 311 5942ft 138kts
24-Jan-17 19:32 33.539768 -112.152479 312 6076ft 188kts
24-Jan-17 19:33 33.577723 -112.202302 296 6006ft 209kts
24-Jan-17 19:34 33.572701 -112.255837 252 7673ft 151kts
24-Jan-17 19:35 33.560886 -112.302083 250 8977ft 137kts
24-Jan-17 19:36 33.549762 -112.346739 254 10004ft 140kts
24-Jan-17 19:37 33.539968 -112.386941 286 10999ft 132kts
24-Jan-17 19:38 33.538355 -112.431901 257 11807ft 137kts
24-Jan-17 19:39 33.527727 -112.477723 253 12747ft 151kts
24-Jan-17 19:40 33.517573 -112.527197 253 13634ft 151kts
24-Jan-17 19:41 33.504251 -112.574359 252 14619ft 146kts
24-Jan-17 19:42 33.497666 -112.623326 272 15542ft 168kts
24-Jan-17 19:43 33.483820 -112.679977 253 16591ft 185kts
24-Jan-17 19:44 33.465585 -112.739035 251 17556ft 193kts
24-Jan-17 19:45 33.448467 -112.800597 253 18398ft 192kts
24-Jan-17 19:46 33.437120 -112.860425 271 19364ft 179kts
24-Jan-17 19:47 33.437183 -112.918832 277 20130ft 178kts
24-Jan-17 19:48 33.437701 -112.975792 271 20918ft 171kts
24-Jan-17 19:49 33.441260 -113.030023 271 21887ft 156kts
24-Jan-17 19:50 33.440655 -113.079912 272 22793ft 146kts
24-Jan-17 19:51 33.436234 -113.125320 271 23622ft 128kts
24-Jan-17 19:52 33.450210 -113.167363 286 24129ft 151kts
24-Jan-17 19:53 33.461009 -113.219617 276 24096ft 177kts
24-Jan-17 19:54 33.467612 -113.280551 268 23986ft 195kts
24-Jan-17 19:55 33.473093 -113.345593 272 24092ft 200kts
24-Jan-17 19:56 33.478046 -113.413646 273 24090ft 209kts
24-Jan-17 19:57 33.482850 -113.483766 266 23986ft 219kts
24-Jan-17 19:58 33.486892 -113.556768 274 24110ft 220kts
24-Jan-17 19:59 33.491974 -113.630986 267 24101ft 225kts
24-Jan-17 20:00 33.493946 -113.706796 272 24081ft 231kts
24-Jan-17 20:01 33.493978 -113.784379 271 24083ft 234kts
24-Jan-17 20:02 33.499334 -113.862572 273 24085ft 238kts
24-Jan-17 20:03 33.505537 -113.941646 278 24118ft 239kts
24-Jan-17 20:04 33.513690 -114.021269 274 24141ft 240kts
24-Jan-17 20:05 33.519512 -114.101789 274 24088ft 244kts
24-Jan-17 20:06 33.524646 -114.182597 274 24112ft 243kts
24-Jan-17 20:07 33.531119 -114.263926 275 24015ft 247kts
24-Jan-17 20:08 33.537089 -114.345267 274 24124ft 243kts
24-Jan-17 20:09 33.542938 -114.426966 274 24080ft 245kts
24-Jan-17 20:10 33.551022 -114.507788 275 24117ft 243kts
24-Jan-17 20:11 33.558586 -114.588681 278 24121ft 243kts
24-Jan-17 20:12 33.564485 -114.669336 271 24104ft 243kts
24-Jan-17 20:13 33.564436 -114.750282 271 24128ft 242kts
24-Jan-17 20:14 33.566074 -114.831065 271 24106ft 242kts
24-Jan-17 20:15 33.567744 -114.912250 272 24105ft 242kts
24-Jan-17 20:16 33.571484 -114.992563 285 24080ft 243kts
24-Jan-17 20:17 33.603951 -115.060566 277 24142ft 239kts
24-Jan-17 20:18 33.613023 -115.140138 276 24108ft 241kts
24-Jan-17 20:19 33.618937 -115.220703 274 24105ft 242kts
24-Jan-17 20:20 33.626224 -115.301014 277 24115ft 242kts
24-Jan-17 20:21 33.632804 -115.381756 277 24089ft 244kts
24-Jan-17 20:22 33.642979 -115.461543 278 24108ft 237kts
24-Jan-17 20:23 33.652147 -115.540490 279 24174ft 237kts
24-Jan-17 20:24 33.661075 -115.619765 278 24112ft 242kts
24-Jan-17 20:25 33.666723 -115.700579 276 24115ft 244kts
24-Jan-17 20:26 33.671079 -115.782153 275 24123ft 246kts
24-Jan-17 20:27 33.677838 -115.864271 284 24064ft 248kts
24-Jan-17 20:28 33.690236 -115.945229 292 24108ft 247kts
24-Jan-17 20:29 33.715167 -116.022339 286 24099ft 248kts
24-Jan-17 20:30 33.730918 -116.102929 282 24119ft 248kts
24-Jan-17 20:31 33.743242 -116.184849 280 24119ft 248kts
24-Jan-17 20:32 33.754517 -116.266769 280 24116ft 248kts
24-Jan-17 20:33 33.765362 -116.348473 278 24140ft 247kts
24-Jan-17 20:34 33.776325 -116.429981 280 24057ft 249kts
24-Jan-17 20:35 33.786960 -116.515607 278 23293ft 266kts
24-Jan-17 20:36 33.799018 -116.604161 280 22415ft 268kts
24-Jan-17 20:37 33.813057 -116.688618 282 21502ft 250kts
24-Jan-17 20:38 33.822728 -116.770090 272 20577ft 245kts
24-Jan-17 20:39 33.830339 -116.851488 281 19415ft 249kts
24-Jan-17 20:40 33.842538 -116.934708 280 18144ft 250kts
24-Jan-17 20:41 33.853388 -117.016110 279 16645ft 244kts
24-Jan-17 20:42 33.863519 -117.096492 280 15151ft 243kts
24-Jan-17 20:43 33.874033 -117.176980 280 13650ft 242kts
24-Jan-17 20:44 33.884177 -117.256532 280 12137ft 238kts
24-Jan-17 20:45 33.894309 -117.334506 280 10633ft 240kts
24-Jan-17 20:46 33.904445 -117.416034 279 9176ft 250kts
24-Jan-17 20:47 33.914151 -117.492858 279 8992ft 214kts
24-Jan-17 20:48 33.923261 -117.563805 279 8144ft 228kts
24-Jan-17 20:49 33.933660 -117.642648 279 6751ft 246kts
24-Jan-17 20:50 33.944353 -117.722221 279 6016ft 224kts
24-Jan-17 20:51 33.949311 -117.794999 272 5203ft 226kts
24-Jan-17 20:52 33.951651 -117.866997 272 5008ft 200kts
24-Jan-17 20:53 33.953765 -117.933934 272 5011ft 211kts
24-Jan-17 20:54 33.955977 -118.007477 272 4223ft 225kts
24-Jan-17 20:55 33.958727 -118.076966 272 4005ft 188kts
24-Jan-17 20:56 33.960868 -118.135620 272 4005ft 164kts
24-Jan-17 20:57 33.960428 -118.188650 258 3801ft 164kts
24-Jan-17 20:58 33.953442 -118.226656 260 3189ft 187kts
24-Jan-17 20:59 33.947800 -118.277592 265 2683ft 122kts
24-Jan-17 21:00 33.943600 -118.321097 264 2023ft 134kts
24-Jan-17 21:01 33.939500 -118.363442 265 804ft 119kts
24-Jan-17 21:02 33.935879 -118.397683 264 136ft 67kts
24-Jan-17 21:03 33.934403 -118.407175 176 135ft 14kts
24-Jan-17 21:04 33.933085 -118.404107 177 135ft 13kts
24-Jan-17 21:05 33.932986 -118.404099 174 135ft 0kts
24-Jan-17 21:06 33.932986 -118.404099 174 135ft 0kts

Navigation Log

Ident Type
Flight plan parsing failed, navigation log unavailable